• Join FlightAware (Why Join?)
  • Login
  • US Flag 
01:30PM EDT


 

Airport Tracker/Info


-or-


 

Live Flight TrackerFlight Track Log ✈ EJA922 ✈ 02-Oct-2013 ✈ KSFO - KAKR

Flight Track Log - Related Links

Times and Time Zones

All times are in EDT time to prevent confusion due to time zone crossing. See the EJA922 flight status page for this flight to view local times or setup timezone preferences in your user account.

Time Position Orientation Groundspeed Altitude Reporting Facility
EDT Latitude Longitude Course Direction KTS MPH feet Rate Location/Type
12:57PM 37.6667 -122.3167 55° Northeast 205 236 2,800  Level Northern Cal TRACON
12:58PM 37.7000 -122.2667 50° Northeast 237 273 5,100 2,400 Climbing Northern Cal TRACON
01:00PM 37.7797 -122.1808 40° Northeast 268 308 8,700 2,160 Climbing Oakland Center
01:01PM 37.8436 -122.1208 37° Northeast 283 326 10,700 1,680 Climbing Oakland Center
01:02PM 37.9208 -122.0481 37° Northeast 348 400 12,200 1,740 Climbing Oakland Center
01:03PM 37.8891 -121.3781 55° Northeast  Level Estimated
01:03PM 38.0031 -121.9708 36° Northeast 367 422 14,300  Level Oakland Center
01:04PM 38.1072 -121.8728 37° Northeast 390 449 16,600 1,860 Climbing Oakland Center
01:05PM 38.1967 -121.7858 37° Northeast 406 467 18,200 1,560 Climbing Oakland Center
01:06PM 38.2903 -121.6983 36° Northeast 418 481 19,800 1,560 Climbing Oakland Center
01:07PM 38.3867 -121.6061 37° Northeast 430 495 21,400 1,620 Climbing Oakland Center
01:08PM 38.4844 -121.4842 44° Northeast 451 519 23,200 1,560 Climbing Oakland Center
01:09PM 38.5522 -121.3675 53° Northeast 459 528 24,600 1,320 Climbing Oakland Center
01:10PM 38.6289 -121.2339 54° Northeast 463 533 25,900 1,200 Climbing Oakland Center
01:11PM 38.7081 -121.0964 54° Northeast 480 552 27,100 1,140 Climbing Oakland Center
01:12PM 38.8081 -120.9239 53° Northeast 496 571 28,300 1,020 Climbing Oakland Center
01:13PM 38.8928 -120.7761 54° Northeast 508 585 29,300 960 Climbing Oakland Center
01:14PM 38.9803 -120.6228 54° Northeast 525 604 30,300 960 Climbing Oakland Center
01:15PM 39.0692 -120.4697 53° Northeast 532 612 31,300 1,260 Climbing Oakland Center
01:16PM 39.1583 -120.3117 54° Northeast 541 623 32,900 1,620 Climbing Oakland Center
01:17PM 39.2469 -120.1575 53° Northeast 538 619 34,700 1,740 Climbing Oakland Center
01:18PM 39.3378 -119.9975 54° Northeast 533 613 36,500 1,080 Climbing Oakland Center
01:19PM 39.4272 -119.8411 53° Northeast 538 619 37,000 240 Climbing Oakland Center
01:20PM 39.5197 -119.6769 54° Northeast 562 647 37,000 240 Level Oakland Center
01:21PM 39.6147 -119.5047 54° Northeast 582 670 37,500 720 Climbing Oakland Center
01:22PM 39.7103 -119.3369 53° Northeast 574 661 38,500 1,020 Climbing Oakland Center
01:23PM 39.8233 -119.1322 54° Northeast 575 662 39,700 1,020 Climbing Oakland Center
01:24PM 39.9144 -118.9653 55° Northeast 564 649 40,700 600 Climbing Oakland Center
01:25PM 40.0047 -118.7989 55° Northeast 559 643 41,000 120 Climbing Oakland Center
01:26PM 40.0964 -118.6294 55° Northeast 565 650 41,000  Level Oakland Center
01:27PM 40.1636 -118.4375 65° Northeast 581 669 41,000  Level Oakland Center
01:28PM 40.2181 -118.2386 70° East 578 665 41,000  Level Oakland Center
01:29PM 40.2719 -118.0392 70° East 579 666 41,000  Level Oakland Center
01:30PM 40.3292 -117.8269 70° East 584 672 41,000  Level Oakland Center
01:32PM 40.3817 -117.6336 70° East 587 676 41,000  Level Oakland Center
01:33PM 40.4428 -117.4028 71° East 593 682 41,000  Level Oakland Center
01:33PM 40.4694 -117.3036 71° East 596 686 41,000  Level Salt Lake Center
01:34PM 40.5222 -117.1053 71° East 595 685 41,000  Level Salt Lake Center
01:35PM 40.5747 -116.9033 71° East 596 686 41,000  Level Salt Lake Center
01:36PM 40.6375 -116.6711 70° East 594 684 41,000  Level Salt Lake Center
01:37PM 40.6914 -116.4744 70° East 593 682 41,000  Level Salt Lake Center
01:38PM 40.7525 -116.2461 70° East 590 679 41,000  Level Salt Lake Center
01:39PM 40.8042 -116.0489 71° East 592 681 41,000  Level Salt Lake Center
01:40PM 40.8556 -115.8519 71° East 593 682 41,000  Level Salt Lake Center
01:41PM 40.9164 -115.6219 71° East 593 682 41,000  Level Salt Lake Center
01:42PM 40.9678 -115.4236 71° East 594 684 41,000  Level Salt Lake Center
01:43PM 41.0253 -115.1931 72° East 593 682 41,000  Level Salt Lake Center
01:44PM 41.0756 -114.9953 71° East 591 680 41,000  Level Salt Lake Center
01:45PM 41.1278 -114.7906 71° East 588 677 41,000  Level Salt Lake Center
01:46PM 41.1794 -114.5850 71° East 589 678 41,000  Level Salt Lake Center
01:48PM 41.2392 -114.3389 72° East 586 674 41,000  Level Salt Lake Center
01:49PM 41.2897 -114.1333 72° East 586 674 41,000  Level Salt Lake Center
01:50PM 41.3406 -113.9292 72° East 583 671 41,000  Level Salt Lake Center
01:51PM 41.3736 -113.7192 78° East 581 669 41,000  Level Salt Lake Center
01:52PM 41.3844 -113.5078 86° East 576 663 41,000  Level Salt Lake Center
01:53PM 41.3969 -113.2964 85° East 574 661 41,000  Level Salt Lake Center
01:54PM 41.4131 -113.0422 85° East 573 659 41,000  Level Salt Lake Center
01:55PM 41.4256 -112.8300 85° East 575 662 41,000  Level Salt Lake Center
01:56PM 41.4386 -112.6194 85° East 572 658 41,000  Level Salt Lake Center
01:57PM 41.4508 -112.4083 86° East 571 657 41,000  Level Salt Lake Center
01:58PM 41.4619 -112.1967 86° East 570 656 41,000  Level Salt Lake Center
01:59PM 41.4736 -111.9850 86° East 569 655 41,000  Level Salt Lake Center
02:00PM 41.4842 -111.7719 86° East 570 656 41,000  Level Salt Lake Center
02:01PM 41.4964 -111.5172 86° East 569 655 41,000  Level Salt Lake Center
02:02PM 41.5069 -111.3042 86° East 573 659 41,000  Level Salt Lake Center
02:03PM 41.5156 -111.0919 87° East 572 658 41,000  Level Salt Lake Center
02:04PM 41.5247 -110.8761 87° East 573 659 41,000  Level Salt Lake Center
02:05PM 41.5342 -110.6722 86° East 575 662 41,000  Level Salt Lake Center
02:06PM 41.5433 -110.4367 87° East 572 658 41,000  Level Salt Lake Center
02:07PM 41.5506 -110.2344 87° East 571 657 41,000  Level Salt Lake Center
02:08PM 41.5594 -109.9994 87° East 569 655 41,000  Level Salt Lake Center
02:09PM 41.5661 -109.7975 87° East 569 655 41,000  Level Salt Lake Center
02:10PM 41.5742 -109.5625 87° East 567 652 41,000  Level Salt Lake Center
02:11PM 41.5808 -109.3600 87° East 566 651 41,000  Level Salt Lake Center
02:12PM 41.5878 -109.1194 88° East 570 656 41,000  Level Salt Lake Center
02:13PM 41.5978 -108.9131 86° East 571 657 41,000  Level Salt Lake Center
02:14PM 41.6144 -108.7114 84° East 569 655 41,000  Level Salt Lake Center
02:15PM 41.6311 -108.4772 84° East 565 650 41,000  Level Salt Lake Center
02:16PM 41.6453 -108.2767 85° East 566 651 41,000  Level Salt Lake Center
02:17PM 41.6631 -108.0442 84° East 566 651 41,000  Level Salt Lake Center
02:19PM 41.6808 -107.7761 85° East 564 649 41,000  Level Denver Center
02:20PM 41.6950 -107.5775 84° East 561 646 41,000  Level Denver Center
02:21PM 41.7075 -107.3789 85° East 560 644 41,000  Level Denver Center
02:22PM 41.7228 -107.1503 85° East 554 638 41,000  Level Denver Center
02:23PM 41.7336 -106.9550 86° East 551 634 41,000  Level Denver Center
02:24PM 41.7478 -106.7283 85° East 547 629 41,000  Level Denver Center
02:25PM 41.7589 -106.5336 86° East 549 632 41,000  Level Denver Center
02:26PM 41.7739 -106.2778 85° East 551 634 41,000  Level Denver Center
02:27PM 41.7853 -106.0483 86° East 552 635 41,000  Level Denver Center
02:28PM 41.7958 -105.8531 86° East 553 636 41,000  Level Denver Center
02:29PM 41.8086 -105.6256 86° East 550 633 41,000  Level Denver Center
02:31PM 41.8175 -105.4289 86° East 552 635 41,000  Level Denver Center
02:32PM 41.8297 -105.1678 86° East 552 635 41,000  Level Denver Center
02:33PM 41.8381 -104.9725 87° East 551 634 41,000  Level Denver Center
02:34PM 41.8475 -104.7447 87° East 551 634 41,000  Level Denver Center
02:35PM 41.8544 -104.5533 87° East 543 625 41,000  Level Denver Center
02:36PM 41.8642 -104.3264 87° East 547 629 41,000  Level Denver Center
02:37PM 41.8711 -104.1317 87° East 548 631 41,000  Level Denver Center
02:38PM 41.8792 -103.9056 87° East 546 628 41,000  Level Denver Center
02:39PM 41.8853 -103.7131 87° East 544 626 41,000  Level Denver Center
02:40PM 41.8914 -103.4856 88° East 547 629 41,000  Level Denver Center
02:41PM 41.8783 -103.2922 95° East 544 626 41,000  Level Denver Center
02:42PM 41.8606 -103.0678 96° East 544 626 41,000  Level Denver Center
02:43PM 41.8436 -102.8756 97° East 543 625 41,000  Level Denver Center
02:44PM 41.8250 -102.6514 96° East 544 626 41,000  Level Denver Center
02:45PM 41.8086 -102.4608 97° East 540 621 41,000  Level Denver Center
02:46PM 41.7953 -102.3028 96° East 537 618 41,000  Level Denver Center
02:47PM 41.7742 -102.0669 97° East 537 618 41,000  Level Denver Center
02:48PM 41.7533 -101.8469 97° East 535 616 41,000  Level Denver Center
02:49PM 41.7364 -101.6561 97° East 539 620 41,000  Level Denver Center
02:50PM 41.7117 -101.4039 97° East 535 616 41,000  Level Denver Center
02:51PM 41.6933 -101.2122 97° East 539 620 41,000  Level Denver Center
02:52PM 41.6708 -100.9892 98° East 540 621 41,000  Level Denver Center
02:53PM 41.6525 -100.7978 97° East 540 621 41,000  Level Denver Center
02:54PM 41.6294 -100.5747 98° East 542 624 41,000  Level Denver Center
02:55PM 41.6097 -100.3842 98° East 540 621 41,000  Level Denver Center
02:56PM 41.5856 -100.1642 98° East 536 617 41,000  Level Denver Center
02:58PM 41.5658 -99.9742 98° East 537 618 41,000  Level Denver Center
02:59PM 41.5453 -99.7844 98° East 537 618 41,000  Level Denver Center
03:00PM 41.5200 -99.5664 99° East 539 620 41,000  Level Denver Center
03:01PM 41.4981 -99.3681 98° East 539 620 41,000  Level Denver Center
03:02PM 41.4756 -99.1692 99° East 541 623 41,000  Level Denver Center
03:03PM 41.4558 -99.0081 99° East 542 624 41,000  Level Denver Center
03:04PM 41.4283 -98.7678 99° East 541 623 41,000  Level Denver Center
03:05PM 41.4086 -98.6064 99° East 542 624 41,000  Level Denver Center
03:06PM 41.3842 -98.3253 97° East 542 624 41,000  Level Denver Center
03:07PM 41.4000 -98.0939 85° East 544 626 41,000  Level Minneapolis Center
03:08PM 41.4131 -97.8903 85° East 548 631 41,000  Level Minneapolis Center
03:09PM 41.4244 -97.6886 86° East 549 632 41,000  Level Minneapolis Center
03:10PM 41.4367 -97.4844 85° East 551 634 41,000  Level Minneapolis Center
03:11PM 41.4506 -97.2378 86° East 554 638 41,000  Level Minneapolis Center
03:12PM 41.4614 -97.0347 86° East 552 635 41,000  Level Minneapolis Center
03:13PM 41.4725 -96.8303 86° East 552 635 41,000  Level Minneapolis Center
03:14PM 41.4825 -96.6256 86° East 551 634 41,000  Level Minneapolis Center
03:15PM 41.4936 -96.4208 86° East 552 635 41,000  Level Minneapolis Center
03:16PM 41.4997 -96.2019 88° East 556 640 41,000  Level Minneapolis Center
03:17PM 41.5081 -95.9967 87° East 555 639 41,000  Level Minneapolis Center
03:18PM 41.5203 -95.7933 85° East 551 634 41,000  Level Minneapolis Center
03:19PM 41.5294 -95.5858 87° East 552 635 41,000  Level Minneapolis Center
03:20PM 41.5381 -95.3822 87° East 550 633 41,000  Level Minneapolis Center
03:21PM 41.5472 -95.1356 87° East 552 635 41,000  Level Minneapolis Center
03:23PM 41.5539 -94.9306 87° East 554 638 41,000  Level Minneapolis Center
03:24PM 41.5611 -94.7242 87° East 556 640 41,000  Level Minneapolis Center
03:25PM 41.5675 -94.5200 88° East 552 635 41,000  Level Minneapolis Center
03:26PM 41.5742 -94.3150 87° East 553 636 41,000  Level Minneapolis Center
03:27PM 41.5775 -94.1219 89° East 549 632 41,000  Level Minneapolis Center
03:28PM 41.5850 -93.8792 88° East 548 631 41,000  Level Minneapolis Center
03:29PM 41.5911 -93.6772 88° East 548 631 41,000  Level Minneapolis Center
03:30PM 41.5967 -93.4750 88° East 548 631 41,000  Level Minneapolis Center
03:31PM 41.6011 -93.2725 88° East 550 633 41,000  Level Minneapolis Center
03:32PM 41.6050 -93.0725 88° East 546 628 41,000  Level Minneapolis Center
03:33PM 41.6092 -92.8722 88° East 543 625 41,000  Level Minneapolis Center
03:34PM 41.6136 -92.6075 89° East 541 623 41,000  Level Chicago Center
03:35PM 41.6158 -92.4081 89° East 543 625 41,000  Level Chicago Center
03:36PM 41.6178 -92.2086 89° East 544 626 41,000  Level Chicago Center
03:37PM 41.6208 -92.0081 89° East 546 628 41,000  Level Chicago Center
03:38PM 41.6225 -91.8089 89° East 544 626 41,000  Level Chicago Center
03:39PM 41.6242 -91.5711 89° East 541 623 41,000  Level Chicago Center
03:40PM 41.6256 -91.3725 89° East 541 623 41,000  Level Chicago Center
03:41PM 41.6256 -91.1742 90° East 541 623 41,000  Level Chicago Center
03:42PM 41.6267 -90.9761 90° East 541 623 41,000  Level Chicago Center
03:43PM 41.6264 -90.7378 90° East 541 623 41,000  Level Chicago Center
03:44PM 41.6261 -90.5242 90° East 545 627 41,000  Level Chicago Center
03:45PM 41.6244 -90.3208 91° East 546 628 41,000  Level Chicago Center
03:46PM 41.6244 -90.1211 90° East 539 620 41,000  Level Chicago Center
03:47PM 41.6222 -89.9206 91° East 538 619 41,000  Level Chicago Center
03:48PM 41.6219 -89.7214 90° East 535 616 41,000  Level Chicago Center
03:49PM 41.6194 -89.5147 91° East 539 620 41,000  Level Chicago Center
03:51PM 41.6158 -89.3172 91° East 536 617 41,000  Level Chicago Center
03:52PM 41.6111 -89.0803 91° East 534 615 41,000  Level Chicago Center
03:53PM 41.6086 -88.8828 91° East 535 616 41,000  Level Chicago Center
03:54PM 41.6050 -88.6842 91° East 536 617 41,000  Level Chicago Center
03:55PM 41.6022 -88.4861 91° East 536 617 41,000  Level Chicago Center
03:56PM 41.5981 -88.2881 92° East 532 612 41,000  Level Chicago Center
03:57PM 41.5936 -88.0861 92° East 533 613 41,000  Level Chicago Center
03:58PM 41.5892 -87.8808 92° East 543 625 41,000  Level Chicago Center
03:59PM 41.5814 -87.6422 92° East 535 616 41,000  Level Chicago Center
04:00PM 41.5750 -87.4447 92° East 534 615 41,000  Level Chicago Center
04:01PM 41.5697 -87.2483 92° East 532 612 41,000  Level Chicago Center
04:02PM 41.5636 -87.0497 92° East 536 617 41,000  Level Chicago Center
04:03PM 41.5569 -86.8528 93° East 534 615 41,000  Level Chicago Center
04:04PM 41.5483 -86.6389 93° East 537 618 41,000  Level Chicago Center
04:05PM 41.5414 -86.4414 93° East 535 616 41,000  Level Chicago Center
04:06PM 41.5333 -86.2419 93° East 539 620 41,000  Level Chicago Center
04:07PM 41.5233 -86.0047 93° East 539 620 41,000  Level Chicago Center
04:08PM 41.5175 -85.8058 92° East 538 619 41,000  Level Chicago Center
04:09PM 41.5114 -85.6089 92° East 539 620 41,000  Level Chicago Center
04:10PM 41.5044 -85.4133 93° East 542 624 41,000  Level Chicago Center
04:11PM 41.4989 -85.1772 92° East 546 628 41,000  Level Chicago Center
04:12PM 41.4928 -84.9814 92° East 537 618 41,000  Level Chicago Center
04:13PM 41.4856 -84.7856 93° East 534 615 41,000  Level Chicago Center
04:14PM 41.4783 -84.5878 93° East 536 617 41,000 -420 Level Chicago Center
04:15PM 41.4714 -84.3947 93° East 528 608 40,200 -1,200 Descending Chicago Center
04:16PM 41.4611 -84.1683 93° East 512 589 38,600 -1,500 Descending Chicago Center
04:17PM 41.4522 -83.9994 94° East 530 610 37,300 -1,440 Descending Cleveland Center
04:18PM 41.4439 -83.8008 93° East 539 620 35,800 -1,500 Descending Cleveland Center
04:19PM 41.3978 -83.6158 108° East 530 610 34,300 -1,620 Descending Cleveland Center
04:20PM 41.3186 -83.4067 117° Southeast 530 610 32,500 -1,620 Descending Cleveland Center
04:21PM 41.2542 -83.2306 116° Southeast 531 611 31,000 -1,500 Descending Cleveland Center
04:22PM 41.1889 -83.0561 116° Southeast 533 613 29,500 -1,620 Descending Cleveland Center
04:24PM 41.1225 -82.8775 116° Southeast 535 616 27,700 -1,920 Descending Cleveland Center
04:25PM 41.0556 -82.6997 116° Southeast 536 617 25,600 -2,280 Descending Cleveland Center
04:26PM 40.9808 -82.5039 117° Southeast 511 588 23,000 -2,580 Descending Cleveland Center
04:27PM 40.9192 -82.3450 117° Southeast 486 559 20,300 -2,640 Descending Cleveland Center
04:28PM 40.8656 -82.2008 116° Southeast 444 511 17,600 -2,640 Descending Cleveland Center
04:29PM 40.8097 -82.0575 117° Southeast 438 504 14,800 -2,580 Descending Cleveland Center
04:30PM 40.7672 -81.9217 112° Southeast 397 457 12,300 -2,340 Descending Cleveland Center
04:31PM 40.7961 -81.8100 71° East 324 373 10,000 -2,460 Descending Cleveland Center
04:32PM 40.8614 -81.7167 47° Northeast 298 343 7,300 -2,400 Descending Cleveland Center
04:33PM 40.9128 -81.6533 43° Northeast 259 298 5,100 -1,560 Descending Cleveland Center
04:34PM 40.9544 -81.6014 43° Northeast 219 252 4,100 -900 Descending Cleveland Center
04:35PM 40.9983 -81.5472 43° Northeast 210 242 3,300 -780 Descending Cleveland Center